Time;durP1;ratioP1;P1;durP2;ratioP2;P2;SDS_P1;SDS_P2;PMS_P1;PMS_P2;Temp;Humidity;BMP_temperature;BMP_pressure;BME280_temperature;BME280_humidity;BME280_pressure;Samples;Min_cycle;Max_cycle;Signal;HPM_P1;HPM_P2
2022/12/18 00:01:25;;;;;;;75.68;27.02;;;-7.80;54.10;;;;;;5052143;28;20033;-77
2022/12/18 00:03:52;;;;;;;61.83;24.85;;;-7.80;52.10;;;;;;5017520;28;20043;-77
2022/12/18 00:06:19;;;;;;;65.68;25.20;;;-7.80;51.80;;;;;;5052751;28;20393;-76
2022/12/18 00:08:46;;;;;;;64.15;25.15;;;-7.90;48.50;;;;;;5034135;28;20049;-77
2022/12/18 00:11:16;;;;;;;64.45;24.17;;;-7.90;46.50;;;;;;5052149;28;20478;-77
2022/12/18 00:13:43;;;;;;;69.82;29.50;;;-7.90;46.00;;;;;;5051869;28;20041;-76
2022/12/18 00:16:11;;;;;;;57.90;24.98;;;-7.90;44.30;;;;;;5052126;28;20044;-77
2022/12/18 00:18:37;;;;;;;62.47;27.67;;;-7.90;44.90;;;;;;5052677;28;20029;-76
2022/12/18 00:21:06;;;;;;;63.42;25.20;;;-7.90;47.10;;;;;;5033035;28;20485;-77
2022/12/18 00:23:34;;;;;;;62.05;24.25;;;-7.90;49.50;;;;;;5051458;28;20036;-77
2022/12/18 00:26:02;;;;;;;65.78;24.85;;;-7.90;52.60;;;;;;5051643;28;20029;-77
2022/12/18 00:28:31;;;;;;;56.75;23.95;;;-7.90;54.40;;;;;;5052606;28;20045;-77
2022/12/18 00:31:07;;;;;;;64.90;25.83;;;-7.90;55.10;;;;;;5051545;28;20029;-77
2022/12/18 00:33:33;;;;;;;64.30;26.95;;;-7.80;56.80;;;;;;5051148;28;20051;-77
2022/12/18 00:36:04;;;;;;;69.70;25.50;;;-7.80;57.60;;;;;;5051745;28;20044;-77
2022/12/18 00:38:32;;;;;;;68.00;24.85;;;-7.70;59.10;;;;;;5033814;28;20508;-76
2022/12/18 00:40:58;;;;;;;74.07;26.42;;;-7.70;58.40;;;;;;5051482;28;20047;-76
2022/12/18 00:43:25;;;;;;;69.32;25.75;;;-7.70;57.60;;;;;;5032449;28;20052;-77
2022/12/18 00:45:52;;;;;;;66.72;26.88;;;-7.80;56.90;;;;;;5051678;28;20095;-76
2022/12/18 00:48:19;;;;;;;71.75;27.35;;;-7.80;57.10;;;;;;5052206;28;20025;-77
2022/12/18 00:50:45;;;;;;;67.70;26.15;;;-7.80;56.10;;;;;;5051677;28;20029;-76
2022/12/18 00:53:11;;;;;;;69.65;28.00;;;-7.80;54.90;;;;;;5050392;28;20041;-77
2022/12/18 00:55:39;;;;;;;70.38;29.02;;;-7.80;54.80;;;;;;5052148;28;20036;-76
2022/12/18 00:58:05;;;;;;;64.38;23.15;;;-7.80;53.90;;;;;;5033419;28;20501;-76
2022/12/18 01:00:31;;;;;;;60.22;23.75;;;-7.80;53.30;;;;;;5051874;28;20029;-76
2022/12/18 01:02:58;;;;;;;68.05;26.42;;;-7.70;52.40;;;;;;5031990;28;20032;-76
2022/12/18 01:05:24;;;;;;;50.63;23.25;;;-7.90;52.20;;;;;;5051858;28;20040;-76
2022/12/18 01:07:51;;;;;;;65.50;26.90;;;-7.90;52.80;;;;;;5050770;28;20049;-77
2022/12/18 01:10:17;;;;;;;68.13;24.58;;;-7.90;53.20;;;;;;5051630;28;20037;-76
2022/12/18 01:12:43;;;;;;;69.35;26.90;;;-7.90;54.20;;;;;;5050005;28;20056;-76
2022/12/18 01:15:12;;;;;;;66.82;26.02;;;-7.90;54.10;;;;;;5032785;28;20040;-76
2022/12/18 01:17:38;;;;;;;64.45;26.88;;;-7.80;54.70;;;;;;5051839;28;20485;-76
2022/12/18 01:20:05;;;;;;;65.15;24.95;;;-7.90;54.40;;;;;;5032478;28;20045;-76
2022/12/18 01:22:32;;;;;;;80.05;26.05;;;-7.90;55.00;;;;;;5049473;28;20378;-76
2022/12/18 01:25:00;;;;;;;77.60;25.88;;;-7.90;55.00;;;;;;5050461;28;20041;-76
2022/12/18 01:27:26;;;;;;;70.70;26.38;;;-8.00;55.60;;;;;;5051590;28;20040;-76
2022/12/18 01:29:52;;;;;;;69.03;26.05;;;-7.90;57.40;;;;;;5051385;28;20907;-76
2022/12/18 01:32:19;;;;;;;72.03;27.92;;;-7.90;58.10;;;;;;5031850;28;20331;-76
2022/12/18 01:34:46;;;;;;;77.63;29.45;;;-7.90;59.10;;;;;;5060570;28;20033;-77
2022/12/18 01:37:12;;;;;;;70.82;25.90;;;-7.90;58.50;;;;;;5070841;28;20041;-77
2022/12/18 01:39:38;;;;;;;78.13;30.73;;;-7.90;58.70;;;;;;5060477;28;20048;-77
2022/12/18 01:42:14;;;;;;;60.60;24.40;;;-7.90;57.90;;;;;;5049835;28;20037;-77
2022/12/18 01:44:52;;;;;;;75.03;27.35;;;-7.90;56.30;;;;;;5051603;28;20060;-77
2022/12/18 01:47:25;;;;;;;70.75;25.45;;;-7.90;53.90;;;;;;5033599;28;20044;-76
2022/12/18 01:49:51;;;;;;;63.63;24.35;;;-8.00;52.60;;;;;;5050969;28;20037;-77
2022/12/18 01:52:20;;;;;;;70.35;25.88;;;-8.00;52.10;;;;;;5032014;28;20033;-76
2022/12/18 01:54:48;;;;;;;69.25;26.83;;;-8.00;53.20;;;;;;5051419;28;20028;-76
2022/12/18 01:57:14;;;;;;;71.15;28.38;;;-8.00;53.40;;;;;;5050868;28;20040;-76
2022/12/18 01:59:44;;;;;;;64.15;23.60;;;-8.00;53.60;;;;;;5051283;28;20040;-76
2022/12/18 02:02:10;;;;;;;68.20;26.50;;;-8.00;53.70;;;;;;5031091;28;20274;-76
2022/12/18 02:04:36;;;;;;;69.20;26.02;;;-8.00;53.60;;;;;;5033017;28;20044;-76
2022/12/18 02:07:40;;;;;;;63.95;24.90;;;-8.10;52.80;;;;;;5050639;28;20032;-77
2022/12/18 02:10:16;;;;;;;61.35;26.27;;;-8.10;53.40;;;;;;5050753;28;20041;-76
2022/12/18 02:13:12;;;;;;;63.15;24.67;;;-8.20;53.60;;;;;;5049879;28;20069;-76
2022/12/18 02:15:50;;;;;;;66.60;26.45;;;-8.20;53.70;;;;;;5013211;28;20045;-77
2022/12/18 02:18:32;;;;;;;71.85;24.48;;;-8.10;53.50;;;;;;5027034;28;20041;-77
2022/12/18 02:21:14;;;;;;;65.63;23.25;;;-8.20;52.80;;;;;;5052975;28;20036;-77
2022/12/18 02:23:49;;;;;;;64.75;25.50;;;-8.20;52.10;;;;;;5055014;28;20025;-77
2022/12/18 02:26:47;;;;;;;52.13;23.25;;;-8.20;50.10;;;;;;5054547;28;20032;-77
2022/12/18 02:29:40;;;;;;;63.13;24.48;;;-8.30;48.90;;;;;;5023200;28;20045;-77
2022/12/18 02:32:10;;;;;;;57.83;23.52;;;-8.30;46.20;;;;;;5023838;28;20045;-77
2022/12/18 02:34:39;;;;;;;56.22;23.13;;;-8.40;45.20;;;;;;5036576;28;20045;-77
2022/12/18 02:37:12;;;;;;;56.25;22.23;;;-8.40;43.40;;;;;;5016288;28;20034;-77
2022/12/18 02:39:42;;;;;;;61.55;24.65;;;-8.50;41.10;;;;;;5054268;28;20378;-77
2022/12/18 02:42:11;;;;;;;60.25;24.63;;;-8.50;40.80;;;;;;5034180;28;20389;-78
2022/12/18 02:44:49;;;;;;;53.70;21.27;;;-8.50;41.30;;;;;;5036270;28;20041;-77
2022/12/18 02:47:23;;;;;;;;;;;-8.50;42.80;;;;;;5031441;28;20041;-77
2022/12/18 02:49:58;;;;;;;61.90;23.23;;;-8.50;45.20;;;;;;5022657;28;19916;-77
2022/12/18 02:52:47;;;;;;;73.72;25.15;;;-8.50;46.00;;;;;;5018799;28;20044;-77
2022/12/18 02:55:36;;;;;;;64.68;22.65;;;-8.40;47.10;;;;;;5035584;28;20159;-77
2022/12/18 02:58:27;;;;;;;70.30;24.80;;;-8.50;48.80;;;;;;5030560;28;20362;-77
2022/12/18 03:01:09;;;;;;;53.60;20.83;;;-8.50;49.80;;;;;;5034381;28;20052;-78
2022/12/18 03:03:45;;;;;;;51.50;23.77;;;-8.50;47.50;;;;;;5035366;28;20351;-77
2022/12/18 03:06:38;;;;;;;64.53;26.48;;;-8.50;46.50;;;;;;5035045;28;20437;-76
2022/12/18 03:09:10;;;;;;;65.35;26.27;;;-8.40;46.50;;;;;;5036586;28;20049;-77
2022/12/18 03:14:31;;;;;;;62.17;24.73;;;-8.50;41.40;;;;;;5027580;28;20045;-76
2022/12/18 03:17:03;;;;;;;57.53;23.25;;;-8.50;42.50;;;;;;5035828;28;20048;-77
2022/12/18 03:19:32;;;;;;;59.55;25.10;;;-8.50;42.60;;;;;;5035720;28;20040;-77
2022/12/18 03:22:03;;;;;;;70.30;26.63;;;-8.40;42.50;;;;;;5034664;28;20041;-76
2022/12/18 03:24:39;;;;;;;62.10;28.17;;;-8.40;42.50;;;;;;5034018;28;20037;-76
2022/12/18 03:27:11;;;;;;;59.35;23.63;;;-8.40;42.10;;;;;;5034796;28;20478;-76
2022/12/18 03:29:47;;;;;;;60.65;23.90;;;-8.40;38.70;;;;;;5035681;28;20394;-76
2022/12/18 03:32:57;;;;;;;64.15;25.33;;;-8.50;38.70;;;;;;5034202;28;20070;-76
2022/12/18 03:35:29;;;;;;;71.13;25.00;;;-8.40;38.60;;;;;;5031735;28;20060;-77
2022/12/18 03:37:56;;;;;;;62.17;25.25;;;-8.40;38.50;;;;;;5034258;28;20045;-77
2022/12/18 03:40:35;;;;;;;54.25;24.20;;;-8.40;37.60;;;;;;5034944;28;20462;-75
2022/12/18 03:43:13;;;;;;;61.42;24.13;;;-8.40;38.30;;;;;;5051380;28;20469;-75
2022/12/18 03:45:54;;;;;;;68.15;26.58;;;-8.30;38.90;;;;;;5035296;28;20394;-75
2022/12/18 03:48:29;;;;;;;62.55;25.85;;;-8.30;39.00;;;;;;5053435;28;20029;-76
2022/12/18 03:51:10;;;;;;;65.22;24.33;;;-8.30;38.90;;;;;;5034451;28;20036;-76
2022/12/18 03:53:58;;;;;;;64.13;24.77;;;-8.30;36.10;;;;;;5033560;28;20052;-76
2022/12/18 03:56:33;;;;;;;66.50;24.05;;;-8.40;34.90;;;;;;5035003;28;20041;-76
2022/12/18 03:59:02;;;;;;;58.65;26.55;;;-8.50;36.60;;;;;;5027814;28;20394;-77
2022/12/18 04:01:37;;;;;;;75.95;28.15;;;-8.50;38.60;;;;;;5034541;28;20037;-76
2022/12/18 04:04:05;;;;;;;65.45;26.17;;;-8.40;40.20;;;;;;5016130;28;20470;-76
2022/12/18 04:06:35;;;;;;;81.78;27.95;;;-8.20;42.10;;;;;;5034476;28;20045;-76
2022/12/18 04:09:03;;;;;;;61.95;25.60;;;-8.30;42.30;;;;;;5033739;28;20514;-76
2022/12/18 04:11:32;;;;;;;65.20;26.83;;;-8.20;43.10;;;;;;5052988;28;20045;-76
2022/12/18 04:14:01;;;;;;;83.85;27.10;;;-8.20;43.70;;;;;;5032671;28;20045;-77
2022/12/18 04:16:29;;;;;;;67.40;24.92;;;-8.20;44.80;;;;;;5015757;28;20069;-76
2022/12/18 04:18:59;;;;;;;51.00;20.50;;;-8.20;46.20;;;;;;5033673;28;20040;-76
2022/12/18 04:21:27;;;;;;;67.00;23.35;;;-8.30;47.30;;;;;;5052696;28;20036;-76
2022/12/18 04:23:53;;;;;;;74.88;27.73;;;-8.30;49.40;;;;;;5050442;28;20041;-75
2022/12/18 04:26:22;;;;;;;64.93;25.25;;;-8.30;52.50;;;;;;5033565;28;20037;-76
2022/12/18 04:29:01;;;;;;;70.80;26.60;;;-8.30;53.20;;;;;;5033506;28;20044;-76
2022/12/18 04:31:28;;;;;;;64.75;24.60;;;-8.20;53.80;;;;;;5033678;28;20053;-76
2022/12/18 04:33:55;;;;;;;63.65;24.40;;;-8.20;53.70;;;;;;5032492;28;20063;-76
2022/12/18 04:36:22;;;;;;;77.57;25.85;;;-8.10;53.60;;;;;;5032893;28;20048;-76
2022/12/18 04:38:48;;;;;;;74.28;27.15;;;-8.10;55.00;;;;;;5051204;28;20394;-76
2022/12/18 04:41:16;;;;;;;61.13;25.85;;;-8.10;56.30;;;;;;5033110;28;20036;-76
2022/12/18 04:43:45;;;;;;;81.88;29.10;;;-8.00;56.10;;;;;;5013013;28;20478;-76
2022/12/18 04:46:11;;;;;;;65.25;27.38;;;-8.10;54.40;;;;;;5051803;28;20037;-76
2022/12/18 04:48:38;;;;;;;62.08;25.27;;;-8.10;52.60;;;;;;5052008;28;20053;-76
2022/12/18 04:51:06;;;;;;;61.97;24.30;;;-8.10;52.10;;;;;;5027354;28;20041;-76
2022/12/18 04:53:32;;;;;;;69.10;26.58;;;-8.10;50.70;;;;;;5029027;28;20050;-76
2022/12/18 04:56:10;;;;;;;60.30;24.08;;;-8.20;50.10;;;;;;5044887;28;20033;-76
2022/12/18 04:58:38;;;;;;;69.45;26.27;;;-8.20;49.60;;;;;;5051848;28;20036;-76
2022/12/18 05:01:05;;;;;;;73.00;26.65;;;-8.20;48.40;;;;;;5033284;28;20048;-76
2022/12/18 05:03:31;;;;;;;73.05;24.83;;;-8.10;47.90;;;;;;5050457;28;20040;-75
2022/12/18 05:05:57;;;;;;;69.00;27.08;;;-8.10;47.20;;;;;;5051839;28;20040;-75
2022/12/18 05:08:24;;;;;;;64.50;27.08;;;-8.10;47.60;;;;;;5051020;28;20044;-76
2022/12/18 05:10:57;;;;;;;70.82;25.65;;;-8.10;47.90;;;;;;5051552;28;20045;-75
2022/12/18 05:13:23;;;;;;;72.38;25.75;;;-8.00;48.30;;;;;;5049530;28;20041;-75
2022/12/18 05:15:53;;;;;;;90.28;30.73;;;-7.90;49.90;;;;;;5051717;28;20470;-75
2022/12/18 05:18:19;;;;;;;74.28;26.08;;;-7.90;51.10;;;;;;5050803;28;20036;-77
2022/12/18 05:20:46;;;;;;;62.88;22.50;;;-7.80;51.40;;;;;;5051821;28;20028;-75
2022/12/18 05:23:12;;;;;;;91.13;32.30;;;-7.80;52.40;;;;;;5049501;28;20032;-75
2022/12/18 05:25:38;;;;;;;72.07;26.42;;;-7.80;53.40;;;;;;5051684;28;20092;-76
2022/12/18 05:28:04;;;;;;;60.88;23.40;;;-7.90;55.00;;;;;;5050920;28;20036;-77
2022/12/18 05:30:30;;;;;;;72.28;25.42;;;-7.90;56.90;;;;;;5033776;28;20029;-77
2022/12/18 05:32:56;;;;;;;62.65;26.23;;;-7.80;57.70;;;;;;5050894;28;20045;-77
2022/12/18 05:35:23;;;;;;;70.43;23.67;;;-7.80;58.10;;;;;;5033968;28;20531;-77
2022/12/18 05:37:49;;;;;;;68.25;25.48;;;-7.80;58.50;;;;;;5056716;28;20036;-77
2022/12/18 05:40:15;;;;;;;67.20;27.77;;;-7.80;58.10;;;;;;5071754;28;20116;-78
2022/12/18 05:42:41;;;;;;;62.10;26.38;;;-7.80;55.30;;;;;;5062989;28;20060;-78
2022/12/18 05:45:08;;;;;;;75.18;26.73;;;-7.80;53.20;;;;;;5051194;28;20029;-77
2022/12/18 05:47:34;;;;;;;74.15;27.23;;;-7.80;51.50;;;;;;5051716;28;20024;-77
2022/12/18 05:50:00;;;;;;;64.20;28.20;;;-7.80;50.20;;;;;;5051931;28;20040;-77
2022/12/18 05:52:26;;;;;;;69.65;27.27;;;-7.80;49.60;;;;;;5050754;28;20037;-77
2022/12/18 05:54:53;;;;;;;77.82;28.23;;;-7.80;49.70;;;;;;5051934;28;20028;-77
2022/12/18 05:57:19;;;;;;;73.07;27.35;;;-7.80;48.90;;;;;;5054911;28;20482;-77
2022/12/18 05:59:46;;;;;;;72.05;25.08;;;-7.80;47.80;;;;;;5055025;28;20390;-77
2022/12/18 06:02:12;;;;;;;76.28;26.15;;;-7.80;46.10;;;;;;5035917;28;20058;-77
2022/12/18 06:04:38;;;;;;;75.53;27.98;;;-7.80;45.40;;;;;;5035474;28;20045;-77
2022/12/18 06:07:04;;;;;;;70.57;25.42;;;-7.90;45.10;;;;;;5054620;28;20439;-78
2022/12/18 06:09:30;;;;;;;71.40;25.45;;;-7.90;44.30;;;;;;5036910;28;20481;-77
2022/12/18 06:11:56;;;;;;;67.18;26.38;;;-7.90;43.40;;;;;;5055220;28;20059;-77
2022/12/18 06:14:22;;;;;;;69.00;26.45;;;-7.80;43.40;;;;;;5053060;28;20238;-77
2022/12/18 06:16:52;;;;;;;61.50;25.73;;;-7.80;43.20;;;;;;5054844;28;20029;-77
2022/12/18 06:19:18;;;;;;;65.53;27.67;;;-7.80;42.70;;;;;;5062069;28;20048;-77
2022/12/18 06:21:44;;;;;;;76.57;29.27;;;-7.80;42.20;;;;;;5059690;28;20036;-77
2022/12/18 06:24:10;;;;;;;67.28;28.13;;;-7.70;42.00;;;;;;5052754;28;20033;-77
2022/12/18 06:26:38;;;;;;;79.47;25.77;;;-7.70;42.30;;;;;;5059403;28;20033;-77
2022/12/18 06:29:05;;;;;;;78.05;26.10;;;-7.70;41.70;;;;;;5054226;28;20040;-77
2022/12/18 06:31:32;;;;;;;71.40;29.02;;;-7.70;41.40;;;;;;5054658;28;20037;-77
2022/12/18 06:33:58;;;;;;;67.07;26.90;;;-7.70;41.80;;;;;;5053268;28;20033;-77
2022/12/18 06:36:24;;;;;;;69.68;28.25;;;-7.60;41.90;;;;;;5053823;28;20225;-76
2022/12/18 06:38:50;;;;;;;69.75;28.10;;;-7.60;41.30;;;;;;5054931;28;20037;-77
2022/12/18 06:41:19;;;;;;;78.35;26.50;;;-7.60;40.90;;;;;;5054444;28;20040;-77
2022/12/18 06:43:45;;;;;;;62.70;23.20;;;-7.60;39.00;;;;;;5052557;28;20053;-77
2022/12/18 06:46:12;;;;;;;72.03;25.02;;;-7.80;37.60;;;;;;5035351;28;20041;-77
2022/12/18 06:48:39;;;;;;;60.65;24.95;;;-7.80;37.00;;;;;;5054128;28;20021;-77
2022/12/18 06:51:05;;;;;;;53.85;23.85;;;-7.80;35.50;;;;;;5053843;28;20024;-78
2022/12/18 06:53:32;;;;;;;49.78;21.70;;;-7.80;34.20;;;;;;5052670;28;20045;-77
2022/12/18 06:56:06;;;;;;;55.47;25.27;;;-7.90;32.10;;;;;;5054082;28;20037;-77
2022/12/18 06:58:33;;;;;;;61.05;24.08;;;-7.90;31.20;;;;;;5036274;28;20037;-77
2022/12/18 07:01:04;;;;;;;61.15;24.98;;;-7.90;31.30;;;;;;5053797;28;20025;-77
2022/12/18 07:03:30;;;;;;;42.67;18.33;;;-7.90;30.30;;;;;;5034594;28;20493;-78
2022/12/18 07:05:56;;;;;;;59.60;23.20;;;-7.90;31.00;;;;;;5035720;28;20059;-78
2022/12/18 07:08:23;;;;;;;55.42;23.55;;;-7.90;31.40;;;;;;5053192;28;20386;-77
2022/12/18 07:10:49;;;;;;;56.63;24.25;;;-7.80;31.40;;;;;;5036189;28;20033;-77
2022/12/18 07:13:16;;;;;;;66.07;26.10;;;-7.80;31.70;;;;;;5051547;28;20040;-75
2022/12/18 07:15:43;;;;;;;64.72;26.45;;;-7.90;30.20;;;;;;5047404;28;20025;-76
2022/12/18 07:18:09;;;;;;;63.97;23.63;;;-7.90;28.80;;;;;;5053157;28;20028;-76
2022/12/18 07:20:36;;;;;;;59.45;24.38;;;-7.90;28.30;;;;;;5053444;28;20036;-76
2022/12/18 07:23:03;;;;;;;55.80;23.60;;;-8.00;28.60;;;;;;5051912;28;20033;-76
2022/12/18 07:25:29;;;;;;;65.75;24.77;;;-8.00;28.40;;;;;;5034892;28;20036;-75
2022/12/18 07:27:56;;;;;;;58.33;23.52;;;-8.00;28.40;;;;;;5034944;28;20044;-75
2022/12/18 07:30:22;;;;;;;58.55;25.88;;;-8.00;28.60;;;;;;5053019;28;20033;-76
2022/12/18 07:32:48;;;;;;;67.68;24.77;;;-8.00;28.70;;;;;;5051877;28;20048;-76
2022/12/18 07:35:14;;;;;;;60.30;23.75;;;-8.10;27.60;;;;;;5035431;28;20037;-77
2022/12/18 07:37:40;;;;;;;60.60;25.77;;;-8.10;27.80;;;;;;5054016;28;20036;-76
2022/12/18 07:40:07;;;;;;;71.20;29.35;;;-8.10;28.30;;;;;;5053187;28;20040;-79
2022/12/18 07:42:34;;;;;;;66.15;24.60;;;-8.10;27.90;;;;;;5051788;28;20037;-77
2022/12/18 07:45:01;;;;;;;63.60;24.77;;;-8.20;27.90;;;;;;5053127;28;20041;-76
2022/12/18 07:47:31;;;;;;;71.30;26.77;;;-8.20;27.60;;;;;;5052591;28;20028;-78
2022/12/18 07:49:57;;;;;;;62.85;26.08;;;-8.20;28.30;;;;;;5033788;28;20041;-78
2022/12/18 07:52:23;;;;;;;75.45;27.95;;;-8.20;29.40;;;;;;5033371;28;20852;-78
2022/12/18 07:54:49;;;;;;;66.82;25.58;;;-8.20;29.50;;;;;;5052537;28;20036;-77
2022/12/18 07:57:17;;;;;;;66.57;24.75;;;-8.20;29.90;;;;;;5052598;28;20033;-77
2022/12/18 07:59:43;;;;;;;62.92;24.50;;;-8.20;30.50;;;;;;5034792;28;20359;-78
2022/12/18 08:02:09;;;;;;;70.47;29.08;;;-8.20;30.80;;;;;;5033956;28;20477;-78
2022/12/18 08:04:35;;;;;;;78.40;29.70;;;-8.20;31.20;;;;;;5051854;28;20036;-77
2022/12/18 08:07:02;;;;;;;83.35;31.17;;;-8.10;31.30;;;;;;5052867;28;20033;-77
2022/12/18 08:09:28;;;;;;;71.57;32.75;;;-8.10;30.70;;;;;;5049306;28;20257;-77
2022/12/18 08:11:54;;;;;;;69.72;28.80;;;-8.10;30.00;;;;;;5033425;28;20048;-77
2022/12/18 08:14:20;;;;;;;70.85;27.70;;;-8.10;30.00;;;;;;5044436;28;20025;-77
2022/12/18 08:16:46;;;;;;;70.85;26.92;;;-8.10;30.10;;;;;;5048297;28;20037;-77
2022/12/18 08:19:12;;;;;;;63.20;24.95;;;-8.00;29.50;;;;;;5027728;28;20036;-77
2022/12/18 08:21:41;;;;;;;68.53;28.65;;;-8.00;28.80;;;;;;5034890;28;20462;-78
2022/12/18 08:24:09;;;;;;;67.75;25.17;;;-8.10;26.90;;;;;;5032383;28;20478;-77
2022/12/18 08:26:35;;;;;;;49.33;21.08;;;-8.10;26.10;;;;;;5052755;28;20029;-77
2022/12/18 08:29:01;;;;;;;65.15;29.17;;;-8.10;25.30;;;;;;5034834;28;20048;-77
2022/12/18 08:31:29;;;;;;;62.40;26.83;;;-8.10;25.10;;;;;;5051774;28;20024;-81
2022/12/18 08:33:56;;;;;;;66.47;27.17;;;-8.00;26.50;;;;;;5032318;28;20048;-82
2022/12/18 08:36:24;;;;;;;70.22;27.27;;;-7.90;27.70;;;;;;5051902;28;20025;-81
2022/12/18 08:38:50;;;;;;;73.93;26.77;;;-7.80;27.30;;;;;;5034012;28;20049;-82
2022/12/18 08:41:17;;;;;;;68.72;26.65;;;-7.70;27.60;;;;;;5051589;28;20039;-82
2022/12/18 08:46:37;;;;;;;68.68;29.83;;;-7.70;26.20;;;;;;5050219;28;20029;-81
2022/12/18 08:49:05;;;;;;;63.05;27.08;;;-7.70;24.40;;;;;;5050927;28;20393;-82
2022/12/18 08:51:31;;;;;;;66.78;27.38;;;-7.70;23.00;;;;;;5016649;28;20041;-82
2022/12/18 08:53:57;;;;;;;75.43;26.42;;;-7.70;20.90;;;;;;5050208;28;20037;-82
2022/12/18 08:56:23;;;;;;;60.80;23.98;;;-7.70;20.80;;;;;;5050795;28;20048;-81
2022/12/18 08:58:54;;;;;;;69.07;26.92;;;-7.70;18.70;;;;;;5033440;28;20045;-80
2022/12/18 09:01:21;;;;;;;57.28;21.80;;;-7.70;17.30;;;;;;5051460;28;20029;-81
2022/12/18 09:03:51;;;;;;;63.95;25.65;;;-7.60;17.20;;;;;;5031985;28;20044;-81
2022/12/18 09:06:21;;;;;;;66.22;26.55;;;-7.50;16.60;;;;;;5050428;28;20044;-80
2022/12/18 09:08:47;;;;;;;67.03;25.67;;;-7.50;14.90;;;;;;5030317;28;20053;-82
2022/12/18 09:11:20;;;;;;;66.38;25.08;;;-7.50;14.10;;;;;;5029014;28;20033;-81
2022/12/18 09:13:46;;;;;;;61.58;27.15;;;-7.50;14.80;;;;;;5029053;28;20040;-81
2022/12/18 09:16:12;;;;;;;59.83;25.60;;;-7.30;17.20;;;;;;5030790;28;20033;-80
2022/12/18 09:18:39;;;;;;;65.72;26.23;;;-7.20;17.60;;;;;;5030187;28;20451;-80
2022/12/18 09:21:17;;;;;;;54.80;24.92;;;-7.20;16.10;;;;;;5031759;28;20467;-79
2022/12/18 09:23:43;;;;;;;57.30;26.20;;;-7.20;16.30;;;;;;5030278;28;20037;-78
2022/12/18 09:26:10;;;;;;;55.80;23.33;;;-7.10;15.40;;;;;;5022146;28;20036;-79
2022/12/18 09:28:36;;;;;;;57.80;26.33;;;-7.00;16.30;;;;;;5030269;28;20041;-78
2022/12/18 09:31:07;;;;;;;69.38;27.73;;;-6.90;18.20;;;;;;5039974;28;20033;-79
2022/12/18 09:33:35;;;;;;;62.50;26.63;;;-6.80;18.70;;;;;;5040924;28;20037;-79
2022/12/18 09:36:03;;;;;;;64.53;24.45;;;-6.70;17.90;;;;;;5057421;28;20025;-79
2022/12/18 09:38:30;;;;;;;64.72;27.08;;;-6.70;14.50;;;;;;5046768;28;20104;-78
2022/12/18 09:41:05;;;;;;;67.90;26.35;;;-6.70;11.80;;;;;;5047646;28;20057;-78
2022/12/18 09:43:34;;;;;;;52.70;24.48;;;-6.70;10.50;;;;;;5052442;28;20045;-78
2022/12/18 09:46:08;;;;;;;57.75;24.83;;;-6.70;9.70;;;;;;5041767;28;20044;-78
2022/12/18 09:48:40;;;;;;;55.47;24.88;;;-6.70;11.20;;;;;;5037500;28;20117;-78
2022/12/18 09:51:15;;;;;;;55.00;24.58;;;-6.60;12.10;;;;;;5037514;28;20029;-78
2022/12/18 09:53:46;;;;;;;62.53;26.45;;;-6.60;11.50;;;;;;5037075;28;20042;-78
2022/12/18 09:56:22;;;;;;;60.17;25.80;;;-6.50;11.30;;;;;;5038022;28;20033;-79
2022/12/18 09:59:03;;;;;;;58.95;25.08;;;-6.40;12.00;;;;;;5039253;28;20044;-77
2022/12/18 10:01:31;;;;;;;40.90;18.07;;;-6.30;11.40;;;;;;5036049;28;20045;-78
2022/12/18 10:03:58;;;;;;;56.80;26.02;;;-6.30;10.00;;;;;;5016524;28;20765;-78
2022/12/18 10:06:40;;;;;;;64.82;27.20;;;-6.30;9.70;;;;;;5037333;28;20178;-77
2022/12/18 10:09:37;;;;;;;60.63;24.98;;;-6.30;7.30;;;;;;5036388;28;20491;-77
2022/12/18 10:12:27;;;;;;;70.63;28.73;;;-6.30;5.70;;;;;;5035678;28;20037;-78
2022/12/18 10:15:11;;;;;;;61.35;27.50;;;-6.10;8.20;;;;;;5038372;28;20033;-78
2022/12/18 10:18:13;;;;;;;54.92;25.38;;;-6.10;6.20;;;;;;5036125;28;20033;-78
2022/12/18 10:20:42;;;;;;;;;;;-6.10;3.70;;;;;;4976980;28;20063;-79
2022/12/18 10:23:09;;;;;;;;;;;-6.10;3.30;;;;;;5020603;28;19909;-79
2022/12/18 10:25:40;;;;;;;;;;;-6.00;3.30;;;;;;5035971;28;19909;-79
2022/12/18 10:28:09;;;;;;;;;;;-5.90;5.70;;;;;;5039344;28;19916;-79
2022/12/18 10:30:35;;;;;;;;;;;-6.00;3.30;;;;;;5041916;28;19920;-76
2022/12/18 10:33:02;;;;;;;;;;;-5.90;4.20;;;;;;5037321;28;19916;-77
2022/12/18 10:35:28;;;;;;;;;;;-5.80;5.80;;;;;;5020063;28;20277;-78
2022/12/18 10:38:03;;;;;;;;;;;-5.60;2.80;;;;;;5038559;28;20369;-79
2022/12/18 10:40:29;;;;;;;;;;;-5.80;1.00;;;;;;5035459;28;19913;-80
2022/12/18 10:43:06;;;;;;;;;;;-5.90;1.00;;;;;;5034248;28;19909;-78
2022/12/18 10:45:32;;;;;;;;;;;-6.00;1.00;;;;;;5034985;28;19916;-79
2022/12/18 10:47:58;;;;;;;;;;;-6.00;1.00;;;;;;5033867;28;20285;-78
2022/12/18 10:50:24;;;;;;;;;;;-6.10;1.00;;;;;;5036408;28;20297;-78
2022/12/18 10:52:55;;;;;;;;;;;-6.00;1.00;;;;;;5018659;28;19941;-78
2022/12/18 10:55:21;;;;;;;;;;;-5.80;1.50;;;;;;5033988;28;19984;-78
2022/12/18 10:57:47;;;;;;;;;;;-5.90;1.00;;;;;;5035511;28;19913;-78
2022/12/18 11:00:21;;;;;;;;;;;-5.80;1.00;;;;;;5033637;28;19951;-80
2022/12/18 11:02:47;;;;;;;;;;;-5.70;1.00;;;;;;5034313;28;19969;-77
2022/12/18 11:05:28;;;;;;;;;;;-5.60;1.00;;;;;;5034661;28;20008;-78
2022/12/18 11:07:55;;;;;;;;;;;-5.60;1.00;;;;;;5031694;28;19921;-77
2022/12/18 11:10:22;;;;;;;;;;;-5.30;1.00;;;;;;5040455;28;19920;-77
2022/12/18 11:12:48;;;;;;;;;;;-5.20;1.00;;;;;;5017587;28;19924;-77
2022/12/18 11:15:19;;;;;;;;;;;-5.10;1.00;;;;;;5034139;28;19909;-79
2022/12/18 11:17:47;;;;;;;;;;;-5.10;1.00;;;;;;5034451;28;19929;-77
2022/12/18 11:20:33;;;;;;;;;;;-5.00;1.00;;;;;;5030691;28;19905;-78
2022/12/18 11:23:01;;;;;;;;;;;-5.00;1.00;;;;;;5019480;28;19909;-77
2022/12/18 11:25:27;;;;;;;;;;;-5.10;1.00;;;;;;5029525;28;19905;-77
2022/12/18 11:27:58;;;;;;;;;;;-5.10;1.00;;;;;;5033473;28;19909;-77
2022/12/18 11:30:26;;;;;;;;;;;-5.00;1.00;;;;;;5003536;28;19917;-77
2022/12/18 11:32:54;;;;;;;;;;;-4.90;1.00;;;;;;5028535;28;20270;-77
2022/12/18 11:35:32;;;;;;;;;;;-4.90;1.00;;;;;;5026750;28;19916;-78
2022/12/18 11:38:02;;;;;;;;;;;-4.90;1.00;;;;;;5032810;28;19916;-78
2022/12/18 11:40:32;;;;;;;;;;;-4.80;1.00;;;;;;5025039;28;19920;-78
2022/12/18 11:43:17;;;;;;;;;;;-4.70;1.00;;;;;;5023605;28;19909;-78
2022/12/18 11:45:50;;;;;;;;;;;-4.90;1.00;;;;;;5048621;28;19916;-79
2022/12/18 11:48:21;;;;;;;;;;;-5.10;1.00;;;;;;5033156;28;19909;-79
2022/12/18 11:50:47;;;;;;;;;;;-5.10;1.00;;;;;;5022678;28;19909;-78
2022/12/18 11:53:13;;;;;;;;;;;-5.10;1.00;;;;;;5027916;28;19927;-78
2022/12/18 11:55:58;;;;;;;;;;;-5.00;1.00;;;;;;5014309;28;19921;-78
2022/12/18 11:58:27;;;;;;;;;;;-4.80;1.00;;;;;;5043106;28;20362;-78
2022/12/18 12:01:14;;;;;;;;;;;-4.80;1.00;;;;;;5028292;28;19906;-78
2022/12/18 12:03:53;;;;;;;;;;;-4.70;1.00;;;;;;5019451;28;19916;-78
2022/12/18 12:06:31;;;;;;;;;;;-4.60;1.00;;;;;;5032238;28;19909;-78
2022/12/18 12:09:03;;;;;;;;;;;-4.70;1.00;;;;;;5041732;28;19920;-78
2022/12/18 12:11:48;;;;;;;;;;;-4.80;1.00;;;;;;5052792;28;19919;-78
2022/12/18 12:14:29;;;;;;;;;;;-4.70;1.00;;;;;;5034490;28;19924;-78
2022/12/18 12:17:06;;;;;;;;;;;-4.60;1.00;;;;;;5035566;28;20350;-79
2022/12/18 12:19:48;;;;;;;;;;;-4.60;1.00;;;;;;5034568;28;19916;-79
2022/12/18 12:22:32;;;;;;;;;;;-4.60;1.00;;;;;;5017459;28;19916;-79
2022/12/18 12:25:10;;;;;;;;;;;-4.50;1.00;;;;;;5037446;28;20340;-79
2022/12/18 12:27:45;;;;;;;;;;;-4.50;1.00;;;;;;5055461;28;19909;-79
2022/12/18 12:30:18;;;;;;;;;;;-4.50;1.00;;;;;;5035507;28;19916;-78
2022/12/18 12:33:04;;;;;;;;;;;-4.40;1.00;;;;;;5034111;28;19908;-79
2022/12/18 12:35:46;;;;;;;;;;;-4.30;1.00;;;;;;5021122;28;19909;-78
2022/12/18 12:38:15;;;;;;;;;;;-4.40;1.00;;;;;;5054158;28;19909;-78
2022/12/18 12:40:45;;;;;;;;;;;-4.40;1.00;;;;;;5034825;28;20376;-78
2022/12/18 12:43:24;;;;;;;;;;;-4.40;1.00;;;;;;5034176;28;20261;-78
2022/12/18 12:46:02;;;;;;;;;;;-4.20;1.00;;;;;;5034985;28;20266;-78
2022/12/18 12:48:34;;;;;;;;;;;-4.10;1.00;;;;;;5034084;28;19909;-79
2022/12/18 12:51:03;;;;;;;;;;;-4.00;1.00;;;;;;5052595;28;19931;-78
2022/12/18 12:53:33;;;;;;;;;;;-4.10;1.00;;;;;;5050837;28;19917;-78
2022/12/18 12:55:59;;;;;;;;;;;-4.10;1.00;;;;;;5017721;28;19931;-75
2022/12/18 12:58:25;;;;;;;;;;;-4.10;1.00;;;;;;5033767;28;19935;-78
2022/12/18 13:00:57;;;;;;;;;;;-4.10;1.00;;;;;;5052074;28;19908;-78
2022/12/18 13:03:28;;;;;;;;;;;-4.20;1.00;;;;;;5050726;28;19908;-79
2022/12/18 13:05:58;;;;;;;;;;;-4.20;1.00;;;;;;5051709;28;19931;-78
2022/12/18 13:08:26;;;;;;;;;;;-4.20;1.00;;;;;;5051929;28;19921;-78
2022/12/18 13:12:55;;;;;;;;;;;-4.10;1.00;;;;;;5034050;28;19919;-78
2022/12/18 13:13:49;;;;;;;;;;;-4.10;1.00;;;;;;5032017;28;19917;-78
2022/12/18 13:16:18;;;;;;;;;;;-4.00;1.00;;;;;;5052159;28;19919;-78